sensor_id;sensor_type;location;lat;lon;timestamp;pressure;altitude;pressure_sealevel;temperature;humidity
66762;BME280;53672;48.176;16.338;2022-08-06T00:02:50;98877.13;;;26.80;55.45
66762;BME280;53672;48.176;16.338;2022-08-06T00:07:52;98879.91;;;26.76;55.41
66762;BME280;53672;48.176;16.338;2022-08-06T00:12:52;98894.13;;;26.71;55.63
66762;BME280;53672;48.176;16.338;2022-08-06T00:17:53;98906.75;;;26.65;55.39
66762;BME280;53672;48.176;16.338;2022-08-06T00:22:55;98894.13;;;26.60;55.18
66762;BME280;53672;48.176;16.338;2022-08-06T00:27:55;98900.00;;;26.52;55.45
66762;BME280;53672;48.176;16.338;2022-08-06T00:32:56;98896.06;;;26.46;55.73
66762;BME280;53672;48.176;16.338;2022-08-06T00:37:57;98913.78;;;26.38;56.14
66762;BME280;53672;48.176;16.338;2022-08-06T00:42:59;98923.25;;;26.30;56.18
66762;BME280;53672;48.176;16.338;2022-08-06T00:48:00;98928.34;;;26.24;55.86
66762;BME280;53672;48.176;16.338;2022-08-06T00:53:03;98943.72;;;26.18;55.91
66762;BME280;53672;48.176;16.338;2022-08-06T00:58:04;98955.13;;;26.09;56.08
66762;BME280;53672;48.176;16.338;2022-08-06T01:03:05;98976.00;;;26.03;56.22
66762;BME280;53672;48.176;16.338;2022-08-06T01:08:07;98975.22;;;25.99;56.34
66762;BME280;53672;48.176;16.338;2022-08-06T01:13:07;98982.28;;;25.97;56.24
66762;BME280;53672;48.176;16.338;2022-08-06T01:18:10;98992.50;;;25.93;56.36
66762;BME280;53672;48.176;16.338;2022-08-06T01:23:35;99009.06;;;25.93;56.30
66762;BME280;53672;48.176;16.338;2022-08-06T01:28:42;99017.00;;;25.94;56.08
66762;BME280;53672;48.176;16.338;2022-08-06T01:33:46;99031.59;;;25.95;55.76
66762;BME280;53672;48.176;16.338;2022-08-06T01:38:52;99039.06;;;25.91;56.12
66762;BME280;53672;48.176;16.338;2022-08-06T01:43:54;99042.97;;;25.86;55.95
66762;BME280;53672;48.176;16.338;2022-08-06T01:48:56;99053.22;;;25.82;56.08
66762;BME280;53672;48.176;16.338;2022-08-06T01:53:58;99055.94;;;25.75;55.86
66762;BME280;53672;48.176;16.338;2022-08-06T01:59:03;99058.97;;;25.63;56.16
66762;BME280;53672;48.176;16.338;2022-08-06T02:04:06;99075.84;;;25.51;56.28
66762;BME280;53672;48.176;16.338;2022-08-06T02:09:11;99069.31;;;25.33;56.89
66762;BME280;53672;48.176;16.338;2022-08-06T02:14:14;99081.03;;;25.22;57.10
66762;BME280;53672;48.176;16.338;2022-08-06T02:19:18;99086.44;;;25.12;57.82
66762;BME280;53672;48.176;16.338;2022-08-06T02:24:21;99082.69;;;24.94;59.10
66762;BME280;53672;48.176;16.338;2022-08-06T02:29:24;99089.91;;;24.72;60.29
66762;BME280;53672;48.176;16.338;2022-08-06T02:34:26;99101.50;;;24.55;60.90
66762;BME280;53672;48.176;16.338;2022-08-06T02:39:29;99105.22;;;24.40;62.51
66762;BME280;53672;48.176;16.338;2022-08-06T02:44:40;99130.13;;;24.20;64.30
66762;BME280;53672;48.176;16.338;2022-08-06T02:49:45;99132.59;;;24.03;66.00
66762;BME280;53672;48.176;16.338;2022-08-06T02:54:49;99134.19;;;23.81;67.74
66762;BME280;53672;48.176;16.338;2022-08-06T02:59:54;99138.59;;;23.63;69.29
66762;BME280;53672;48.176;16.338;2022-08-06T03:05:01;99139.78;;;23.43;70.54
66762;BME280;53672;48.176;16.338;2022-08-06T03:10:03;99148.91;;;23.28;71.74
66762;BME280;53672;48.176;16.338;2022-08-06T03:15:07;99154.88;;;23.10;72.52
66762;BME280;53672;48.176;16.338;2022-08-06T03:20:09;99168.75;;;22.98;73.05
66762;BME280;53672;48.176;16.338;2022-08-06T03:25:12;99168.47;;;22.84;74.04
66762;BME280;53672;48.176;16.338;2022-08-06T03:30:16;99188.25;;;22.74;74.68
66762;BME280;53672;48.176;16.338;2022-08-06T03:35:18;99204.13;;;22.65;75.10
66762;BME280;53672;48.176;16.338;2022-08-06T03:40:19;99213.00;;;22.58;75.51
66762;BME280;53672;48.176;16.338;2022-08-06T03:45:22;99218.34;;;22.51;75.96
66762;BME280;53672;48.176;16.338;2022-08-06T03:50:29;99228.97;;;22.53;75.91
66762;BME280;53672;48.176;16.338;2022-08-06T03:55:33;99244.50;;;22.45;76.66
66762;BME280;53672;48.176;16.338;2022-08-06T04:00:40;99243.69;;;22.45;76.69
66762;BME280;53672;48.176;16.338;2022-08-06T04:05:43;99255.41;;;22.42;77.06
66762;BME280;53672;48.176;16.338;2022-08-06T04:10:46;99265.41;;;22.50;76.37
66762;BME280;53672;48.176;16.338;2022-08-06T04:15:50;99277.53;;;22.49;76.26
66762;BME280;53672;48.176;16.338;2022-08-06T04:20:54;99292.97;;;22.53;76.13
66762;BME280;53672;48.176;16.338;2022-08-06T04:25:57;99304.91;;;22.61;75.98
66762;BME280;53672;48.176;16.338;2022-08-06T04:31:00;99316.56;;;22.70;75.70
66762;BME280;53672;48.176;16.338;2022-08-06T04:36:03;99315.22;;;22.80;75.45
66762;BME280;53672;48.176;16.338;2022-08-06T04:41:04;99328.41;;;22.90;75.10
66762;BME280;53672;48.176;16.338;2022-08-06T04:46:07;99335.59;;;22.94;74.70
66762;BME280;53672;48.176;16.338;2022-08-06T04:51:08;99346.16;;;22.92;74.91
66762;BME280;53672;48.176;16.338;2022-08-06T04:56:09;99344.50;;;22.88;75.18
66762;BME280;53672;48.176;16.338;2022-08-06T05:01:11;99353.00;;;22.83;75.48
66762;BME280;53672;48.176;16.338;2022-08-06T05:06:17;99363.28;;;22.86;75.70
66762;BME280;53672;48.176;16.338;2022-08-06T05:11:22;99370.00;;;22.88;75.44
66762;BME280;53672;48.176;16.338;2022-08-06T05:16:25;99368.59;;;22.94;75.09
66762;BME280;53672;48.176;16.338;2022-08-06T05:21:33;99369.53;;;23.02;74.80
66762;BME280;53672;48.176;16.338;2022-08-06T05:26:35;99368.56;;;23.10;74.19
66762;BME280;53672;48.176;16.338;2022-08-06T05:31:38;99376.25;;;23.20;74.11
66762;BME280;53672;48.176;16.338;2022-08-06T05:36:39;99380.06;;;23.31;73.17
66762;BME280;53672;48.176;16.338;2022-08-06T05:41:39;99376.84;;;23.29;73.07
66762;BME280;53672;48.176;16.338;2022-08-06T05:46:45;99376.16;;;23.32;72.83
66762;BME280;53672;48.176;16.338;2022-08-06T05:51:53;99379.41;;;23.38;72.24
66762;BME280;53672;48.176;16.338;2022-08-06T05:57:06;99380.91;;;23.51;72.15
66762;BME280;53672;48.176;16.338;2022-08-06T06:02:11;99379.28;;;23.65;71.46
66762;BME280;53672;48.176;16.338;2022-08-06T06:07:13;99386.25;;;23.79;70.79
66762;BME280;53672;48.176;16.338;2022-08-06T06:12:14;99388.50;;;23.92;70.33
66762;BME280;53672;48.176;16.338;2022-08-06T06:17:40;99385.63;;;24.08;69.33
66762;BME280;53672;48.176;16.338;2022-08-06T06:22:49;99399.59;;;24.15;68.86
66762;BME280;53672;48.176;16.338;2022-08-06T06:27:56;99397.91;;;24.10;69.29
66762;BME280;53672;48.176;16.338;2022-08-06T06:33:06;99411.06;;;24.17;68.88
66762;BME280;53672;48.176;16.338;2022-08-06T06:38:23;99414.22;;;24.19;68.99
66762;BME280;53672;48.176;16.338;2022-08-06T06:43:32;99422.81;;;24.14;69.63
66762;BME280;53672;48.176;16.338;2022-08-06T06:48:41;99423.78;;;23.87;73.38
66762;BME280;53672;48.176;16.338;2022-08-06T06:53:45;99424.19;;;23.69;75.01
66762;BME280;53672;48.176;16.338;2022-08-06T06:58:50;99442.91;;;23.45;74.75
66762;BME280;53672;48.176;16.338;2022-08-06T07:03:54;99443.34;;;23.15;73.59
66762;BME280;53672;48.176;16.338;2022-08-06T07:08:57;99452.84;;;23.18;72.59
66762;BME280;53672;48.176;16.338;2022-08-06T07:13:59;99456.81;;;23.20;71.93
66762;BME280;53672;48.176;16.338;2022-08-06T07:19:03;99457.97;;;23.19;71.54
66762;BME280;53672;48.176;16.338;2022-08-06T07:24:05;99465.59;;;23.26;71.03
66762;BME280;53672;48.176;16.338;2022-08-06T07:29:06;99471.47;;;23.24;70.16
66762;BME280;53672;48.176;16.338;2022-08-06T07:34:09;99474.75;;;23.14;70.16
66762;BME280;53672;48.176;16.338;2022-08-06T07:39:22;99479.28;;;23.07;70.71
66762;BME280;53672;48.176;16.338;2022-08-06T07:44:23;99496.41;;;23.32;69.59
66762;BME280;53672;48.176;16.338;2022-08-06T07:49:34;99494.63;;;23.55;67.67
66762;BME280;53672;48.176;16.338;2022-08-06T07:54:37;99505.09;;;23.65;67.17
66762;BME280;53672;48.176;16.338;2022-08-06T07:59:38;99512.63;;;23.68;66.96
66762;BME280;53672;48.176;16.338;2022-08-06T08:04:40;99521.69;;;23.68;66.49
66762;BME280;53672;48.176;16.338;2022-08-06T08:09:42;99521.44;;;23.58;66.40
66762;BME280;53672;48.176;16.338;2022-08-06T08:14:44;99538.56;;;23.51;66.30
66762;BME280;53672;48.176;16.338;2022-08-06T08:19:47;99549.44;;;23.16;67.73
66762;BME280;53672;48.176;16.338;2022-08-06T08:24:47;99551.97;;;22.66;69.08
66762;BME280;53672;48.176;16.338;2022-08-06T08:29:48;99558.41;;;22.58;69.99
66762;BME280;53672;48.176;16.338;2022-08-06T08:34:49;99558.56;;;22.49;70.42
66762;BME280;53672;48.176;16.338;2022-08-06T08:39:50;99566.03;;;22.37;70.75
66762;BME280;53672;48.176;16.338;2022-08-06T08:44:51;99571.78;;;22.32;71.12
66762;BME280;53672;48.176;16.338;2022-08-06T08:49:55;99570.88;;;22.40;70.92
66762;BME280;53672;48.176;16.338;2022-08-06T08:55:01;99572.63;;;22.60;69.39
66762;BME280;53672;48.176;16.338;2022-08-06T09:00:04;99572.78;;;22.79;67.64
66762;BME280;53672;48.176;16.338;2022-08-06T09:05:07;99585.78;;;22.94;66.73
66762;BME280;53672;48.176;16.338;2022-08-06T09:10:10;99591.41;;;22.98;66.40
66762;BME280;53672;48.176;16.338;2022-08-06T09:15:11;99593.63;;;23.08;65.77
66762;BME280;53672;48.176;16.338;2022-08-06T09:20:13;99598.47;;;22.99;67.13
66762;BME280;53672;48.176;16.338;2022-08-06T09:25:38;99604.78;;;22.59;72.85
66762;BME280;53672;48.176;16.338;2022-08-06T09:30:39;99610.03;;;22.24;74.61
66762;BME280;53672;48.176;16.338;2022-08-06T09:35:41;99613.59;;;22.01;75.63
66762;BME280;53672;48.176;16.338;2022-08-06T09:40:41;99624.41;;;21.85;76.09
66762;BME280;53672;48.176;16.338;2022-08-06T09:45:44;99629.34;;;21.67;75.48
66762;BME280;53672;48.176;16.338;2022-08-06T09:50:46;99640.66;;;21.54;74.85
66762;BME280;53672;48.176;16.338;2022-08-06T09:55:47;99643.28;;;21.62;74.69
66762;BME280;53672;48.176;16.338;2022-08-06T10:00:48;99645.66;;;21.52;74.03
66762;BME280;53672;48.176;16.338;2022-08-06T10:06:04;99657.75;;;21.39;73.98
66762;BME280;53672;48.176;16.338;2022-08-06T10:11:05;99652.38;;;21.30;73.09
66762;BME280;53672;48.176;16.338;2022-08-06T10:16:17;99665.94;;;21.27;73.14
66762;BME280;53672;48.176;16.338;2022-08-06T10:21:21;99656.69;;;21.31;72.45
66762;BME280;53672;48.176;16.338;2022-08-06T10:26:24;99645.34;;;21.65;72.97
66762;BME280;53672;48.176;16.338;2022-08-06T10:31:26;99651.22;;;22.24;67.07
66762;BME280;53672;48.176;16.338;2022-08-06T10:36:35;99663.00;;;22.25;65.52
66762;BME280;53672;48.176;16.338;2022-08-06T10:41:36;99661.41;;;22.12;66.07
66762;BME280;53672;48.176;16.338;2022-08-06T10:46:37;99661.28;;;22.20;65.46
66762;BME280;53672;48.176;16.338;2022-08-06T10:51:40;99658.41;;;22.41;64.35
66762;BME280;53672;48.176;16.338;2022-08-06T10:56:41;99664.66;;;22.78;62.74
66762;BME280;53672;48.176;16.338;2022-08-06T11:01:46;99658.00;;;22.79;62.33
66762;BME280;53672;48.176;16.338;2022-08-06T11:07:23;99656.66;;;22.73;62.51
66762;BME280;53672;48.176;16.338;2022-08-06T11:12:41;99660.00;;;22.66;62.61
66762;BME280;53672;48.176;16.338;2022-08-06T11:17:46;99660.22;;;22.73;63.65
66762;BME280;53672;48.176;16.338;2022-08-06T11:22:48;99655.47;;;22.86;62.41
66762;BME280;53672;48.176;16.338;2022-08-06T11:27:51;99665.88;;;22.93;61.83
66762;BME280;53672;48.176;16.338;2022-08-06T11:32:52;99655.88;;;23.00;62.01
66762;BME280;53672;48.176;16.338;2022-08-06T11:37:54;99656.78;;;23.04;61.40
66762;BME280;53672;48.176;16.338;2022-08-06T11:42:54;99649.56;;;23.28;60.37
66762;BME280;53672;48.176;16.338;2022-08-06T11:48:04;99646.63;;;23.64;59.09
66762;BME280;53672;48.176;16.338;2022-08-06T11:53:06;99658.25;;;23.89;58.35
66762;BME280;53672;48.176;16.338;2022-08-06T11:58:18;99657.00;;;24.02;57.79
66762;BME280;53672;48.176;16.338;2022-08-06T12:03:36;99656.53;;;24.66;58.48
66762;BME280;53672;48.176;16.338;2022-08-06T12:08:38;99660.06;;;24.82;56.35
66762;BME280;53672;48.176;16.338;2022-08-06T12:13:39;99660.56;;;24.68;55.76
66762;BME280;53672;48.176;16.338;2022-08-06T12:18:40;99654.72;;;24.54;56.11
66762;BME280;53672;48.176;16.338;2022-08-06T12:23:42;99663.97;;;24.46;56.57
66762;BME280;53672;48.176;16.338;2022-08-06T13:01:48;99647.50;;;24.65;58.91
66762;BME280;53672;48.176;16.338;2022-08-06T13:06:49;99652.38;;;24.21;56.87
66762;BME280;53672;48.176;16.338;2022-08-06T13:11:50;99660.31;;;23.76;58.51
66762;BME280;53672;48.176;16.338;2022-08-06T13:16:52;99653.44;;;23.54;58.80
66762;BME280;53672;48.176;16.338;2022-08-06T13:21:58;99657.09;;;23.31;59.21
66762;BME280;53672;48.176;16.338;2022-08-06T13:27:00;99654.16;;;23.23;59.74
66762;BME280;53672;48.176;16.338;2022-08-06T13:32:04;99654.88;;;23.20;59.45
66762;BME280;53672;48.176;16.338;2022-08-06T13:37:05;99669.03;;;23.07;59.23
66762;BME280;53672;48.176;16.338;2022-08-06T13:42:07;99669.41;;;22.93;59.18
66762;BME280;53672;48.176;16.338;2022-08-06T13:47:10;99665.75;;;22.89;59.47
66762;BME280;53672;48.176;16.338;2022-08-06T13:52:11;99666.13;;;22.88;59.51
66762;BME280;53672;48.176;16.338;2022-08-06T13:57:12;99666.34;;;22.83;59.75
66762;BME280;53672;48.176;16.338;2022-08-06T14:02:14;99675.03;;;22.85;60.29
66762;BME280;53672;48.176;16.338;2022-08-06T14:07:14;99670.22;;;22.94;60.46
66762;BME280;53672;48.176;16.338;2022-08-06T14:12:14;99661.19;;;22.81;60.46
66762;BME280;53672;48.176;16.338;2022-08-06T14:17:16;99658.06;;;22.67;61.23
66762;BME280;53672;48.176;16.338;2022-08-06T14:22:17;99674.75;;;22.62;61.54
66762;BME280;53672;48.176;16.338;2022-08-06T14:27:17;99672.44;;;22.76;61.05
66762;BME280;53672;48.176;16.338;2022-08-06T14:32:19;99676.44;;;22.79;60.91
66762;BME280;53672;48.176;16.338;2022-08-06T14:37:20;99671.78;;;22.67;61.18
66762;BME280;53672;48.176;16.338;2022-08-06T14:42:20;99672.13;;;22.53;61.93
66762;BME280;53672;48.176;16.338;2022-08-06T14:47:22;99669.75;;;22.40;62.27
66762;BME280;53672;48.176;16.338;2022-08-06T14:52:23;99675.25;;;22.40;62.40
66762;BME280;53672;48.176;16.338;2022-08-06T14:57:23;99676.50;;;22.42;62.39
66762;BME280;53672;48.176;16.338;2022-08-06T15:02:25;99680.28;;;22.38;62.74
66762;BME280;53672;48.176;16.338;2022-08-06T15:07:26;99677.78;;;22.33;62.64
66762;BME280;53672;48.176;16.338;2022-08-06T15:12:27;99672.03;;;22.38;62.62
66762;BME280;53672;48.176;16.338;2022-08-06T15:17:29;99663.94;;;22.29;62.69
66762;BME280;53672;48.176;16.338;2022-08-06T15:22:29;99667.69;;;22.24;62.78
66762;BME280;53672;48.176;16.338;2022-08-06T15:27:30;99660.94;;;22.10;63.12
66762;BME280;53672;48.176;16.338;2022-08-06T15:32:32;99661.88;;;22.14;63.09
66762;BME280;53672;48.176;16.338;2022-08-06T15:37:32;99659.22;;;22.17;63.01
66762;BME280;53672;48.176;16.338;2022-08-06T15:42:33;99657.63;;;22.29;62.47
66762;BME280;53672;48.176;16.338;2022-08-06T15:47:35;99649.94;;;22.34;62.44
66762;BME280;53672;48.176;16.338;2022-08-06T15:52:35;99648.66;;;22.44;61.87
66762;BME280;53672;48.176;16.338;2022-08-06T15:57:36;99660.00;;;22.42;61.38
66762;BME280;53672;48.176;16.338;2022-08-06T16:02:38;99656.78;;;22.40;61.27
66762;BME280;53672;48.176;16.338;2022-08-06T16:07:38;99648.13;;;22.38;61.31
66762;BME280;53672;48.176;16.338;2022-08-06T16:12:39;99643.53;;;22.30;61.50
66762;BME280;53672;48.176;16.338;2022-08-06T16:17:41;99657.38;;;22.34;61.09
66762;BME280;53672;48.176;16.338;2022-08-06T16:22:41;99659.00;;;22.22;61.47
66762;BME280;53672;48.176;16.338;2022-08-06T16:27:42;99663.25;;;22.08;61.54
66762;BME280;53672;48.176;16.338;2022-08-06T16:32:43;99651.34;;;22.04;61.57
66762;BME280;53672;48.176;16.338;2022-08-06T16:37:44;99663.00;;;22.01;61.57
66762;BME280;53672;48.176;16.338;2022-08-06T16:42:44;99665.75;;;22.01;61.54
66762;BME280;53672;48.176;16.338;2022-08-06T16:47:46;99657.97;;;21.91;61.97
66762;BME280;53672;48.176;16.338;2022-08-06T16:52:47;99656.84;;;21.92;61.49
66762;BME280;53672;48.176;16.338;2022-08-06T16:57:47;99665.72;;;21.89;61.99
66762;BME280;53672;48.176;16.338;2022-08-06T17:02:49;99663.31;;;21.87;61.77
66762;BME280;53672;48.176;16.338;2022-08-06T17:07:49;99671.31;;;21.80;61.67
66762;BME280;53672;48.176;16.338;2022-08-06T17:12:50;99663.06;;;21.68;61.78
66762;BME280;53672;48.176;16.338;2022-08-06T17:17:52;99680.56;;;21.63;62.09
66762;BME280;53672;48.176;16.338;2022-08-06T17:22:52;99685.91;;;21.60;62.06
66762;BME280;53672;48.176;16.338;2022-08-06T17:27:53;99695.03;;;21.52;62.33
66762;BME280;53672;48.176;16.338;2022-08-06T17:32:55;99691.72;;;21.46;62.37
66762;BME280;53672;48.176;16.338;2022-08-06T17:37:55;99699.56;;;21.36;62.27
66762;BME280;53672;48.176;16.338;2022-08-06T17:42:56;99703.78;;;21.33;62.30
66762;BME280;53672;48.176;16.338;2022-08-06T17:47:58;99699.75;;;21.31;62.21
66762;BME280;53672;48.176;16.338;2022-08-06T17:52:59;99701.66;;;21.18;62.22
66762;BME280;53672;48.176;16.338;2022-08-06T17:57:59;99704.13;;;21.11;62.32
66762;BME280;53672;48.176;16.338;2022-08-06T18:03:01;99710.13;;;21.04;62.08
66762;BME280;53672;48.176;16.338;2022-08-06T18:08:02;99722.38;;;21.07;61.61
66762;BME280;53672;48.176;16.338;2022-08-06T18:13:03;99712.28;;;20.99;61.35
66762;BME280;53672;48.176;16.338;2022-08-06T18:18:04;99712.34;;;20.90;61.45
66762;BME280;53672;48.176;16.338;2022-08-06T18:23:05;99701.47;;;20.82;61.44
66762;BME280;53672;48.176;16.338;2022-08-06T18:28:06;99713.41;;;20.77;60.88
66762;BME280;53672;48.176;16.338;2022-08-06T18:33:08;99707.19;;;20.68;60.64
66762;BME280;53672;48.176;16.338;2022-08-06T18:38:09;99705.78;;;20.62;60.57
66762;BME280;53672;48.176;16.338;2022-08-06T18:43:09;99715.47;;;20.59;60.26
66762;BME280;53672;48.176;16.338;2022-08-06T18:48:11;99718.88;;;20.56;60.46
66762;BME280;53672;48.176;16.338;2022-08-06T18:53:11;99729.97;;;20.60;60.35
66762;BME280;53672;48.176;16.338;2022-08-06T18:58:12;99729.81;;;20.56;60.00
66762;BME280;53672;48.176;16.338;2022-08-06T19:03:14;99729.66;;;20.61;60.69
66762;BME280;53672;48.176;16.338;2022-08-06T19:08:14;99745.34;;;20.73;61.44
66762;BME280;53672;48.176;16.338;2022-08-06T19:13:15;99747.66;;;20.92;59.77
66762;BME280;53672;48.176;16.338;2022-08-06T19:18:17;99746.44;;;21.01;59.47
66762;BME280;53672;48.176;16.338;2022-08-06T19:23:17;99749.31;;;21.05;59.36
66762;BME280;53672;48.176;16.338;2022-08-06T19:28:18;99741.41;;;21.03;58.97
66762;BME280;53672;48.176;16.338;2022-08-06T19:33:20;99740.41;;;21.08;58.32
66762;BME280;53672;48.176;16.338;2022-08-06T19:38:20;99743.47;;;21.06;58.78
66762;BME280;53672;48.176;16.338;2022-08-06T19:43:21;99759.78;;;21.03;58.64
66762;BME280;53672;48.176;16.338;2022-08-06T19:48:23;99768.16;;;21.06;58.46
66762;BME280;53672;48.176;16.338;2022-08-06T19:53:23;99767.25;;;21.02;58.49
66762;BME280;53672;48.176;16.338;2022-08-06T19:58:24;99768.22;;;20.98;58.44
66762;BME280;53672;48.176;16.338;2022-08-06T20:03:26;99776.47;;;20.98;58.43
66762;BME280;53672;48.176;16.338;2022-08-06T20:08:26;99766.63;;;20.97;58.45
66762;BME280;53672;48.176;16.338;2022-08-06T20:13:27;99768.91;;;20.95;58.28
66762;BME280;53672;48.176;16.338;2022-08-06T20:18:29;99776.50;;;20.89;57.81
66762;BME280;53672;48.176;16.338;2022-08-06T20:23:30;99767.94;;;20.70;58.39
66762;BME280;53672;48.176;16.338;2022-08-06T20:28:31;99770.91;;;20.56;58.72
66762;BME280;53672;48.176;16.338;2022-08-06T20:33:33;99780.31;;;20.47;58.83
66762;BME280;53672;48.176;16.338;2022-08-06T20:38:34;99785.00;;;20.38;58.82
66762;BME280;53672;48.176;16.338;2022-08-06T20:43:34;99783.44;;;20.28;58.24
66762;BME280;53672;48.176;16.338;2022-08-06T20:48:36;99798.28;;;20.18;58.46
66762;BME280;53672;48.176;16.338;2022-08-06T20:53:36;99793.81;;;20.05;58.49
66762;BME280;53672;48.176;16.338;2022-08-06T20:58:37;99799.44;;;20.00;58.61
66762;BME280;53672;48.176;16.338;2022-08-06T21:03:39;99805.72;;;20.01;58.58
66762;BME280;53672;48.176;16.338;2022-08-06T21:08:39;99803.03;;;19.92;58.73
66762;BME280;53672;48.176;16.338;2022-08-06T21:13:40;99799.78;;;19.90;58.60
66762;BME280;53672;48.176;16.338;2022-08-06T21:18:42;99802.25;;;19.74;57.95
66762;BME280;53672;48.176;16.338;2022-08-06T21:23:43;99808.53;;;19.75;57.60
66762;BME280;53672;48.176;16.338;2022-08-06T21:28:43;99804.81;;;19.71;57.31
66762;BME280;53672;48.176;16.338;2022-08-06T21:33:45;99793.56;;;19.64;57.67
66762;BME280;53672;48.176;16.338;2022-08-06T21:38:46;99794.06;;;19.57;57.63
66762;BME280;53672;48.176;16.338;2022-08-06T21:43:46;99799.53;;;19.49;56.99
66762;BME280;53672;48.176;16.338;2022-08-06T21:48:49;99796.97;;;19.44;56.66
66762;BME280;53672;48.176;16.338;2022-08-06T21:53:50;99797.09;;;19.30;57.00
66762;BME280;53672;48.176;16.338;2022-08-06T21:58:51;99796.13;;;19.26;57.40
66762;BME280;53672;48.176;16.338;2022-08-06T22:03:54;99801.09;;;19.15;57.78
66762;BME280;53672;48.176;16.338;2022-08-06T22:08:55;99796.28;;;19.12;58.05
66762;BME280;53672;48.176;16.338;2022-08-06T22:13:55;99800.78;;;19.08;57.92
66762;BME280;53672;48.176;16.338;2022-08-06T22:18:57;99791.59;;;19.04;58.57
66762;BME280;53672;48.176;16.338;2022-08-06T22:23:57;99787.28;;;19.03;58.64
66762;BME280;53672;48.176;16.338;2022-08-06T22:28:58;99781.81;;;19.03;58.52
66762;BME280;53672;48.176;16.338;2022-08-06T22:34:00;99792.59;;;19.00;58.63
66762;BME280;53672;48.176;16.338;2022-08-06T22:39:00;99789.34;;;18.98;58.37
66762;BME280;53672;48.176;16.338;2022-08-06T22:44:01;99793.41;;;19.35;61.15
66762;BME280;53672;48.176;16.338;2022-08-06T22:49:03;99782.31;;;19.40;57.21
66762;BME280;53672;48.176;16.338;2022-08-06T22:54:03;99774.72;;;19.28;57.21
66762;BME280;53672;48.176;16.338;2022-08-06T22:59:04;99772.97;;;19.15;57.57
66762;BME280;53672;48.176;16.338;2022-08-06T23:04:06;99770.41;;;19.10;58.34
66762;BME280;53672;48.176;16.338;2022-08-06T23:09:06;99770.56;;;18.96;59.16
66762;BME280;53672;48.176;16.338;2022-08-06T23:14:07;99763.66;;;18.90;59.65
66762;BME280;53672;48.176;16.338;2022-08-06T23:19:09;99767.63;;;18.84;59.98
66762;BME280;53672;48.176;16.338;2022-08-06T23:24:09;99773.09;;;18.76;60.42
66762;BME280;53672;48.176;16.338;2022-08-06T23:29:09;99762.31;;;18.70;60.54
66762;BME280;53672;48.176;16.338;2022-08-06T23:34:11;99765.03;;;18.70;60.89
66762;BME280;53672;48.176;16.338;2022-08-06T23:39:12;99774.38;;;18.69;61.17
66762;BME280;53672;48.176;16.338;2022-08-06T23:44:12;99763.28;;;18.66;61.41
66762;BME280;53672;48.176;16.338;2022-08-06T23:49:14;99743.19;;;18.62;61.83
66762;BME280;53672;48.176;16.338;2022-08-06T23:54:15;99752.50;;;18.61;61.49
66762;BME280;53672;48.176;16.338;2022-08-06T23:59:16;99752.03;;;18.59;61.69
